createdAt,value
2023-01-08T00:00:50.327Z,177.75
2023-01-08T00:03:18.259Z,193.65
2023-01-08T00:05:46.289Z,199.30
2023-01-08T00:08:14.102Z,194.90
2023-01-08T00:11:00.204Z,215.75
2023-01-08T00:14:05.449Z,199.63
2023-01-08T00:16:52.440Z,228.48
2023-01-08T00:19:20.273Z,214.23
2023-01-08T00:22:06.383Z,240.35
2023-01-08T00:24:34.215Z,243.00
2023-01-08T00:27:02.071Z,211.65
2023-01-08T00:29:30.043Z,214.57
2023-01-08T00:31:57.866Z,216.55
2023-01-08T00:34:25.711Z,213.10
2023-01-08T00:36:53.675Z,205.88
2023-01-08T00:39:21.639Z,225.95
2023-01-08T00:42:07.872Z,211.13
2023-01-08T00:44:35.777Z,236.10
2023-01-08T00:47:03.513Z,242.77
2023-01-08T00:49:31.277Z,252.52
2023-01-08T00:51:59.184Z,247.55
2023-01-08T00:54:26.975Z,253.68
2023-01-08T00:56:57.697Z,271.85
2023-01-08T00:59:25.479Z,260.70
2023-01-08T01:01:54.947Z,285.00
2023-01-08T01:04:22.854Z,242.43
2023-01-08T01:06:50.902Z,219.73
2023-01-08T01:09:18.641Z,223.85
2023-01-08T01:11:46.448Z,214.98
2023-01-08T01:14:17.228Z,211.18
2023-01-08T01:16:45.325Z,198.00
2023-01-08T01:19:31.822Z,217.52
2023-01-08T01:21:59.952Z,215.63
2023-01-08T01:24:46.305Z,223.82
2023-01-08T01:27:14.155Z,207.77
2023-01-08T01:30:00.338Z,204.45
2023-01-08T01:32:28.167Z,221.65
2023-01-08T01:34:56.103Z,210.80
2023-01-08T01:37:24.042Z,216.60
2023-01-08T01:40:11.300Z,242.45
2023-01-08T01:42:41.807Z,237.25
2023-01-08T01:45:22.956Z,264.17
2023-01-08T01:48:02.875Z,268.30
2023-01-08T01:50:33.359Z,273.10
2023-01-08T01:53:04.196Z,279.13
2023-01-08T01:55:32.289Z,297.67
2023-01-08T01:58:17.392Z,288.20
2023-01-08T02:00:45.411Z,299.48
2023-01-08T02:03:13.928Z,281.33
2023-01-08T02:05:47.637Z,287.77
2023-01-08T02:08:23.149Z,293.55
2023-01-08T02:11:32.877Z,321.50
2023-01-08T02:14:26.484Z,305.98
2023-01-08T02:17:06.924Z,301.05
2023-01-08T02:19:45.671Z,292.70
2023-01-08T02:22:47.182Z,290.58
2023-01-08T02:25:38.539Z,294.85
2023-01-08T02:28:09.758Z,367.15
2023-01-08T02:30:37.712Z,285.08
2023-01-08T02:33:05.773Z,296.58
2023-01-08T02:35:42.958Z,260.95
2023-01-08T02:38:12.518Z,262.63
2023-01-08T02:41:01.389Z,285.42
2023-01-08T02:43:55.688Z,274.65
2023-01-08T02:46:27.416Z,239.05
2023-01-08T02:48:57.558Z,256.15
2023-01-08T02:51:47.039Z,245.60
2023-01-08T02:54:17.641Z,256.50
2023-01-08T02:57:07.383Z,246.10
2023-01-08T02:59:35.511Z,221.20
2023-01-08T03:02:03.754Z,229.88
2023-01-08T03:04:50.538Z,217.85
2023-01-08T03:07:18.445Z,237.95
2023-01-08T03:09:46.439Z,231.07
2023-01-08T03:12:19.655Z,227.68
2023-01-08T03:15:06.192Z,210.63
2023-01-08T03:17:38.076Z,211.23
2023-01-08T03:20:09.628Z,208.83
2023-01-08T03:22:56.877Z,210.20
2023-01-08T03:25:44.125Z,187.90
2023-01-08T03:28:22.281Z,208.45
2023-01-08T03:30:50.229Z,209.95
2023-01-08T03:33:18.905Z,194.60
2023-01-08T03:35:51.253Z,184.18
2023-01-08T03:38:27.630Z,195.40
2023-01-08T03:41:21.674Z,197.75
2023-01-08T03:43:49.604Z,184.98
2023-01-08T03:46:24.854Z,191.63
2023-01-08T03:49:11.033Z,183.90
2023-01-08T03:51:43.044Z,180.25
2023-01-08T03:54:15.805Z,187.03
2023-01-08T03:59:15.331Z,182.05
2023-01-08T04:01:43.302Z,180.57
2023-01-08T04:04:11.655Z,166.05
2023-01-08T04:06:57.999Z,181.75
2023-01-08T04:09:26.051Z,161.00
2023-01-08T04:11:53.857Z,164.27
2023-01-08T04:14:21.732Z,172.10
2023-01-08T04:16:49.709Z,172.30
2023-01-08T04:19:36.425Z,187.05
2023-01-08T04:22:04.298Z,190.13
2023-01-08T04:25:09.463Z,190.93
2023-01-08T04:27:37.437Z,189.18
2023-01-08T04:30:05.666Z,197.90
2023-01-08T04:32:33.627Z,182.60
2023-01-08T04:35:01.691Z,181.07
2023-01-08T04:37:29.524Z,169.75
2023-01-08T04:39:57.331Z,171.35
2023-01-08T04:42:43.218Z,187.95
2023-01-08T04:45:11.244Z,199.85
2023-01-08T04:47:39.037Z,194.55
2023-01-08T04:50:07.255Z,192.00
2023-01-08T04:52:35.277Z,220.73
2023-01-08T04:55:03.147Z,212.98
2023-01-08T04:57:49.415Z,210.10
2023-01-08T05:00:17.580Z,233.30
2023-01-08T05:02:45.643Z,193.45
2023-01-08T05:05:13.659Z,183.75
2023-01-08T05:07:41.602Z,147.77
2023-01-08T05:10:09.923Z,162.45
2023-01-08T05:12:37.815Z,137.90
2023-01-08T05:15:06.120Z,175.90
2023-01-08T05:17:33.949Z,191.52
2023-01-08T05:20:01.724Z,126.75
2023-01-08T05:22:29.490Z,154.65
2023-01-08T05:24:57.333Z,117.57
2023-01-08T05:27:25.245Z,105.88
2023-01-08T05:29:53.010Z,107.72
2023-01-08T05:32:21.605Z,106.75
2023-01-08T05:34:49.695Z,110.20
2023-01-08T05:37:17.339Z,100.18
2023-01-08T05:39:45.268Z,95.93
2023-01-08T05:42:13.174Z,99.00
2023-01-08T05:44:41.146Z,89.70
2023-01-08T05:47:08.947Z,91.82
2023-01-08T05:49:36.724Z,97.63
2023-01-08T05:52:04.628Z,101.97
2023-01-08T05:54:32.436Z,89.68
2023-01-08T05:57:00.422Z,98.60
2023-01-08T05:59:28.303Z,84.47
2023-01-08T06:01:56.075Z,84.97
2023-01-08T06:04:24.364Z,84.22
2023-01-08T06:06:52.715Z,89.35
2023-01-08T06:09:20.594Z,88.63
2023-01-08T06:11:51.498Z,82.88
2023-01-08T06:14:19.463Z,83.55
2023-01-08T06:16:47.300Z,81.30
2023-01-08T06:19:15.300Z,84.35
2023-01-08T06:21:43.168Z,78.15
2023-01-08T06:24:11.176Z,87.13
2023-01-08T06:26:39.036Z,86.63
2023-01-08T06:29:06.803Z,84.07
2023-01-08T06:31:35.091Z,76.25
2023-01-08T06:34:03.023Z,83.13
2023-01-08T06:36:30.786Z,87.68
2023-01-08T06:38:58.883Z,77.60
2023-01-08T06:41:26.655Z,82.50
2023-01-08T06:43:56.262Z,86.88
2023-01-08T06:46:24.112Z,80.63
2023-01-08T06:48:51.945Z,84.07
2023-01-08T06:51:19.981Z,103.43
2023-01-08T06:53:50.890Z,95.82
2023-01-08T06:56:52.283Z,107.72
2023-01-08T06:59:20.954Z,108.55
2023-01-08T07:01:49.198Z,109.10
2023-01-08T07:04:18.062Z,106.22
2023-01-08T07:07:04.642Z,124.03
2023-01-08T07:09:34.094Z,142.52
2023-01-08T07:12:01.948Z,169.27
2023-01-08T07:14:29.800Z,175.23
2023-01-08T07:16:57.701Z,176.73
2023-01-08T07:19:25.473Z,155.70
2023-01-08T07:21:53.173Z,135.80
2023-01-08T07:24:21.040Z,137.38
2023-01-08T07:26:49.210Z,176.10
2023-01-08T07:29:17.135Z,182.90
2023-01-08T07:32:03.651Z,250.15
2023-01-08T07:34:31.603Z,245.70
2023-01-08T07:37:18.105Z,219.02
2023-01-08T07:39:47.015Z,231.57
2023-01-08T07:42:15.247Z,254.52
2023-01-08T07:44:43.298Z,286.33
2023-01-08T07:47:11.126Z,284.55
2023-01-08T07:49:39.210Z,272.85
2023-01-08T07:52:07.280Z,201.43
2023-01-08T07:54:35.387Z,92.63
2023-01-08T07:57:03.976Z,119.00
2023-01-08T07:59:32.562Z,97.88
2023-01-08T08:02:22.181Z,109.85
2023-01-08T08:04:50.301Z,128.18
2023-01-08T08:07:18.167Z,145.05
2023-01-08T08:09:45.963Z,163.10
2023-01-08T08:12:15.220Z,186.23
2023-01-08T08:14:43.369Z,180.98
2023-01-08T08:17:11.714Z,182.48
2023-01-08T08:19:39.678Z,186.60
2023-01-08T08:22:07.701Z,185.00
2023-01-08T08:24:35.489Z,183.13
2023-01-08T08:27:03.459Z,168.60
2023-01-08T08:29:31.309Z,170.02
2023-01-08T08:31:59.156Z,159.77
2023-01-08T08:34:27.047Z,138.50
2023-01-08T08:36:54.817Z,109.57
2023-01-08T08:39:22.750Z,93.18
2023-01-08T08:41:50.556Z,89.45
2023-01-08T08:44:18.435Z,79.28
2023-01-08T08:46:46.326Z,86.28
2023-01-08T08:49:14.384Z,80.30
2023-01-08T08:51:42.374Z,94.07
2023-01-08T08:54:11.780Z,100.53
2023-01-08T08:56:39.582Z,94.32
2023-01-08T08:59:09.697Z,103.53
2023-01-08T09:01:37.606Z,94.78
2023-01-08T09:04:05.509Z,92.93
2023-01-08T09:06:33.508Z,87.43
2023-01-08T09:09:01.447Z,90.63
2023-01-08T09:11:29.496Z,91.65
2023-01-08T09:13:57.221Z,86.30
2023-01-08T09:16:25.093Z,80.40
2023-01-08T09:18:53.154Z,77.90
2023-01-08T09:21:20.873Z,97.97
2023-01-08T09:23:49.794Z,86.35
2023-01-08T09:26:17.629Z,90.05
2023-01-08T09:28:45.429Z,110.32
2023-01-08T09:31:13.374Z,88.78
2023-01-08T09:33:41.252Z,91.45
2023-01-08T09:36:12.348Z,94.03
2023-01-08T09:38:40.125Z,88.57
2023-01-08T09:41:28.830Z,97.68
2023-01-08T09:43:56.865Z,91.28
2023-01-08T09:46:27.277Z,91.50
2023-01-08T09:49:06.965Z,82.70
2023-01-08T09:51:36.228Z,103.05
2023-01-08T09:54:04.165Z,111.57
2023-01-08T09:56:32.069Z,115.55
2023-01-08T09:59:00.595Z,132.00
2023-01-08T10:01:35.444Z,152.95
2023-01-08T10:04:21.912Z,127.55
2023-01-08T10:06:53.775Z,112.68
2023-01-08T10:09:25.443Z,127.57
2023-01-08T10:11:53.187Z,110.43
2023-01-08T10:14:22.662Z,109.07
2023-01-08T10:17:02.196Z,96.72
2023-01-08T10:19:30.028Z,229.30
2023-01-08T10:21:58.000Z,302.42
2023-01-08T10:24:46.168Z,371.50
2023-01-08T10:27:16.683Z,360.30
2023-01-08T10:29:44.581Z,273.13
2023-01-08T10:32:20.159Z,261.98
2023-01-08T10:34:52.384Z,152.02
2023-01-08T10:37:24.375Z,161.48
2023-01-08T10:39:52.648Z,178.17
2023-01-08T10:42:20.820Z,150.32
2023-01-08T10:45:24.016Z,124.05
2023-01-08T10:47:53.622Z,123.90
2023-01-08T10:50:24.292Z,128.55
2023-01-08T10:52:57.234Z,158.85
2023-01-08T10:58:10.266Z,179.35
2023-01-08T11:00:38.349Z,184.00
2023-01-08T11:03:19.598Z,197.20
2023-01-08T11:05:47.948Z,216.38
2023-01-08T11:08:18.280Z,235.50
2023-01-08T11:11:01.985Z,233.68
2023-01-08T11:13:30.005Z,274.73
2023-01-08T11:16:26.030Z,245.48
2023-01-08T11:18:53.936Z,199.07
2023-01-08T11:21:23.832Z,323.80
2023-01-08T11:24:36.627Z,406.92
2023-01-08T11:27:42.410Z,419.10
2023-01-08T11:30:22.227Z,458.45
2023-01-08T11:33:07.457Z,485.02
2023-01-08T11:35:53.894Z,430.73
2023-01-08T11:38:21.807Z,426.67
2023-01-08T11:40:52.357Z,491.95
2023-01-08T11:43:50.808Z,306.45
2023-01-08T11:46:32.738Z,262.38
2023-01-08T11:49:10.193Z,310.85
2023-01-08T11:51:54.613Z,391.85
2023-01-08T11:54:43.072Z,291.27
2023-01-08T11:57:32.397Z,329.38
2023-01-08T12:00:15.796Z,322.27
2023-01-08T12:03:03.978Z,299.83
2023-01-08T12:05:36.056Z,298.63
2023-01-08T12:08:06.334Z,320.02
2023-01-08T12:10:46.646Z,296.77
2023-01-08T12:13:33.591Z,267.23
2023-01-08T12:16:39.070Z,272.90
2023-01-08T12:19:09.839Z,435.35
2023-01-08T12:21:58.781Z,505.88
2023-01-08T12:24:51.605Z,475.25
2023-01-08T12:27:55.934Z,315.95
2023-01-08T12:30:52.315Z,200.27
2023-01-08T12:33:40.341Z,244.15
2023-01-08T12:36:14.944Z,283.70
2023-01-08T12:38:45.149Z,287.75
2023-01-08T12:41:19.818Z,312.42
2023-01-08T12:43:58.674Z,397.80
2023-01-08T12:46:28.015Z,396.55
2023-01-08T12:48:57.508Z,395.27
2023-01-08T12:51:30.747Z,433.15
2023-01-08T12:54:15.773Z,455.88
2023-01-08T12:57:10.707Z,456.00
2023-01-08T12:59:45.928Z,449.27
2023-01-08T13:02:28.277Z,439.80
2023-01-08T13:04:56.394Z,453.40
2023-01-08T13:07:28.963Z,450.70
2023-01-08T13:10:22.844Z,435.23
2023-01-08T13:12:51.517Z,424.42
2023-01-08T13:15:22.561Z,440.73
2023-01-08T13:17:50.760Z,456.77
2023-01-08T13:20:31.841Z,456.45
2023-01-08T13:23:04.332Z,462.67
2023-01-08T13:25:54.471Z,459.13
2023-01-08T13:28:25.265Z,458.10
2023-01-08T13:30:55.958Z,471.48
2023-01-08T13:33:36.309Z,501.98
2023-01-08T13:36:19.214Z,561.20
2023-01-08T13:38:47.533Z,541.40
2023-01-08T13:41:32.331Z,507.83
2023-01-08T13:44:05.677Z,699.45
2023-01-08T13:46:42.654Z,953.00
2023-01-08T13:49:35.029Z,1042.63
2023-01-08T13:52:02.953Z,1043.57
2023-01-08T13:54:32.593Z,1086.60
2023-01-08T13:57:20.917Z,1092.20
2023-01-08T13:59:56.248Z,1100.50
2023-01-08T14:02:32.368Z,1077.05
2023-01-08T14:05:01.857Z,1123.25
2023-01-08T14:07:31.045Z,1123.13
2023-01-08T14:10:09.694Z,1128.25
2023-01-08T14:12:37.507Z,1139.10
2023-01-08T14:15:10.252Z,1122.72
2023-01-08T14:20:10.622Z,1126.80
2023-01-08T14:22:38.491Z,1252.88
2023-01-08T14:25:07.144Z,1298.20
2023-01-08T14:27:35.599Z,1240.93
2023-01-08T14:30:14.172Z,1231.13
2023-01-08T14:33:00.640Z,1224.97
2023-01-08T14:35:33.700Z,1235.70
2023-01-08T14:38:02.427Z,1289.85
2023-01-08T14:40:36.098Z,1368.35
2023-01-08T14:43:22.872Z,1354.13
2023-01-08T14:45:52.291Z,1347.00
2023-01-08T14:48:33.609Z,1391.90
2023-01-08T14:51:06.266Z,1340.03
2023-01-08T14:53:40.998Z,1109.78
2023-01-08T14:56:12.048Z,1057.57
2023-01-08T14:58:40.760Z,1036.70
2023-01-08T15:01:14.984Z,894.35
2023-01-08T15:03:44.249Z,995.55
2023-01-08T15:06:12.346Z,1042.68
2023-01-08T15:08:44.143Z,1039.25
2023-01-08T15:11:25.033Z,1009.17
2023-01-08T15:13:53.669Z,904.95
2023-01-08T15:16:32.758Z,865.28
2023-01-08T15:19:13.695Z,856.45
2023-01-08T15:21:51.091Z,810.38
2023-01-08T15:24:29.846Z,713.47
2023-01-08T15:26:58.032Z,732.33
2023-01-08T15:29:33.593Z,573.50
2023-01-08T15:32:12.570Z,566.13
2023-01-08T15:34:40.783Z,611.15
2023-01-08T15:37:08.574Z,583.50
2023-01-08T15:39:36.381Z,585.92
2023-01-08T15:42:49.683Z,589.92
2023-01-08T15:45:40.215Z,621.90
2023-01-08T15:48:08.548Z,700.97
2023-01-08T15:50:40.347Z,713.45
2023-01-08T15:53:22.614Z,804.97
2023-01-08T15:55:51.042Z,750.72
2023-01-08T15:58:18.833Z,750.80
2023-01-08T16:00:46.991Z,744.22
2023-01-08T16:03:15.169Z,722.17
2023-01-08T16:05:42.977Z,735.35
2023-01-08T16:08:11.356Z,699.95
2023-01-08T16:10:39.257Z,644.90
2023-01-08T16:13:07.183Z,636.28
2023-01-08T16:15:35.293Z,651.65
2023-01-08T16:18:04.389Z,611.75
2023-01-08T16:20:32.162Z,615.70
2023-01-08T16:23:00.124Z,605.00
2023-01-08T16:25:46.568Z,607.35
2023-01-08T16:28:14.415Z,607.72
2023-01-08T16:30:43.055Z,622.78
2023-01-08T16:33:10.955Z,581.55
2023-01-08T16:35:38.889Z,578.40
2023-01-08T16:38:06.900Z,551.83
2023-01-08T16:41:00.145Z,484.60
2023-01-08T16:45:56.190Z,338.63
2023-01-08T16:48:24.115Z,517.38
2023-01-08T16:50:52.016Z,635.55
2023-01-08T16:53:22.103Z,631.10
2023-01-08T16:55:50.059Z,626.10
2023-01-08T16:58:17.946Z,608.05
2023-01-08T17:00:47.912Z,605.08
2023-01-08T17:03:15.896Z,586.42
2023-01-08T17:06:21.093Z,603.90
2023-01-08T17:08:49.130Z,616.97
2023-01-08T17:11:18.580Z,618.38
2023-01-08T17:13:46.559Z,598.65
2023-01-08T17:16:15.636Z,557.65
2023-01-08T17:18:43.704Z,522.58
2023-01-08T17:21:12.397Z,525.05
2023-01-08T17:23:40.549Z,521.58
2023-01-08T17:26:27.052Z,529.92
2023-01-08T17:28:55.392Z,505.35
2023-01-08T17:31:23.365Z,461.75
2023-01-08T17:33:51.483Z,376.13
2023-01-08T17:36:26.535Z,358.27
2023-01-08T17:38:54.811Z,313.13
2023-01-08T17:41:41.430Z,273.88
2023-01-08T17:44:10.192Z,252.75
2023-01-08T17:46:42.535Z,244.73
2023-01-08T17:49:11.694Z,226.52
2023-01-08T17:51:41.349Z,252.35
2023-01-08T17:54:13.361Z,255.77
2023-01-08T17:56:41.370Z,282.25
2023-01-08T17:59:10.403Z,436.13
2023-01-08T18:01:38.370Z,329.42
2023-01-08T18:04:06.365Z,363.23
2023-01-08T18:06:34.695Z,323.90
2023-01-08T18:09:02.784Z,376.02
2023-01-08T18:11:30.683Z,296.40
2023-01-08T18:13:59.315Z,321.45
2023-01-08T18:16:27.415Z,134.25
2023-01-08T18:18:57.151Z,241.93
2023-01-08T18:21:26.541Z,174.85
2023-01-08T18:23:54.425Z,164.82
2023-01-08T18:26:22.493Z,316.20
2023-01-08T18:28:51.605Z,283.58
2023-01-08T18:31:21.392Z,332.65
2023-01-08T18:33:52.683Z,303.55
2023-01-08T18:36:20.702Z,295.55
2023-01-08T18:38:48.886Z,295.83
2023-01-08T18:41:36.734Z,298.48
2023-01-08T18:44:06.169Z,275.55
2023-01-08T18:46:34.221Z,280.08
2023-01-08T18:49:02.199Z,295.17
2023-01-08T18:51:29.976Z,283.23
2023-01-08T18:53:57.875Z,296.35
2023-01-08T18:56:30.806Z,298.27
2023-01-08T18:58:58.653Z,318.17
2023-01-08T19:01:26.906Z,334.80
2023-01-08T19:03:56.131Z,371.60
2023-01-08T19:06:24.081Z,382.38
2023-01-08T19:08:52.055Z,368.88
2023-01-08T19:11:23.627Z,350.38
2023-01-08T19:13:57.039Z,377.13
2023-01-08T19:16:25.532Z,394.00
2023-01-08T19:18:53.613Z,426.27
2023-01-08T19:21:22.064Z,413.92
2023-01-08T19:23:49.901Z,401.73
2023-01-08T19:26:17.858Z,388.75
2023-01-08T19:28:45.735Z,371.27
2023-01-08T19:31:14.893Z,337.95
2023-01-08T19:33:43.049Z,271.50
2023-01-08T19:36:16.201Z,331.48
2023-01-08T19:38:44.321Z,381.13
2023-01-08T19:41:30.822Z,391.40
2023-01-08T19:43:58.965Z,389.70
2023-01-08T19:46:27.111Z,338.67
2023-01-08T19:48:59.217Z,364.52
2023-01-08T19:51:27.364Z,327.30
2023-01-08T19:53:56.270Z,343.10
2023-01-08T19:56:24.051Z,297.45
2023-01-08T19:58:51.781Z,272.17
2023-01-08T20:01:21.590Z,341.23
2023-01-08T20:03:49.565Z,329.17
2023-01-08T20:06:20.168Z,364.95
2023-01-08T20:08:49.213Z,337.33
2023-01-08T20:11:17.361Z,356.63
2023-01-08T20:13:45.140Z,354.92
2023-01-08T20:16:31.636Z,332.65
2023-01-08T20:19:02.703Z,346.00
2023-01-08T20:21:31.285Z,326.48
2023-01-08T20:24:04.291Z,329.58
2023-01-08T20:26:32.454Z,330.88
2023-01-08T20:29:00.344Z,271.77
2023-01-08T20:31:33.191Z,300.58
2023-01-08T20:36:30.681Z,286.40
2023-01-08T20:39:00.456Z,298.25
2023-01-08T20:41:28.369Z,258.65
2023-01-08T20:43:59.230Z,293.38
2023-01-08T20:46:31.153Z,272.80
2023-01-08T20:49:01.529Z,296.57
2023-01-08T20:51:57.841Z,301.75
2023-01-08T20:54:26.793Z,321.60
2023-01-08T20:56:56.578Z,326.38
2023-01-08T20:59:24.668Z,336.35
2023-01-08T21:01:52.661Z,323.77
2023-01-08T21:04:20.781Z,317.40
2023-01-08T21:06:48.609Z,321.70
2023-01-08T21:09:17.975Z,301.90
2023-01-08T21:11:45.815Z,321.38
2023-01-08T21:14:13.625Z,316.98
2023-01-08T21:16:41.526Z,309.17
2023-01-08T21:19:10.871Z,313.92
2023-01-08T21:21:40.666Z,301.23
2023-01-08T21:24:46.228Z,296.20
2023-01-08T21:27:13.994Z,292.35
2023-01-08T21:29:41.657Z,299.73
2023-01-08T21:32:09.523Z,274.45
2023-01-08T21:34:37.407Z,284.10
2023-01-08T21:37:05.380Z,286.73
2023-01-08T21:39:33.315Z,279.38
2023-01-08T21:42:19.285Z,275.88
2023-01-08T21:45:05.366Z,276.52
2023-01-08T21:47:33.157Z,272.13
2023-01-08T21:50:01.043Z,280.52
2023-01-08T21:52:47.265Z,271.17
2023-01-08T21:55:17.791Z,285.00
2023-01-08T21:57:45.694Z,295.63
2023-01-08T22:00:14.348Z,312.67
2023-01-08T22:02:42.189Z,325.00
2023-01-08T22:05:10.094Z,300.65
2023-01-08T22:07:37.874Z,309.10
2023-01-08T22:10:06.600Z,314.00
2023-01-08T22:12:34.331Z,339.20
2023-01-08T22:15:02.222Z,341.42
2023-01-08T22:17:30.767Z,374.58
2023-01-08T22:19:58.650Z,379.88
2023-01-08T22:22:26.735Z,354.67
2023-01-08T22:24:55.027Z,356.25
2023-01-08T22:27:22.904Z,323.20
2023-01-08T22:29:50.768Z,346.58
2023-01-08T22:32:18.555Z,333.50
2023-01-08T22:34:46.452Z,247.68
2023-01-08T22:37:14.456Z,276.13
2023-01-08T22:39:42.274Z,260.45
2023-01-08T22:42:10.032Z,285.45
2023-01-08T22:44:37.853Z,301.02
2023-01-08T22:47:06.495Z,275.80
2023-01-08T22:49:34.301Z,220.65
2023-01-08T22:52:02.142Z,187.70
2023-01-08T22:54:29.939Z,184.23
2023-01-08T22:56:57.748Z,205.10
2023-01-08T22:59:25.537Z,133.23
2023-01-08T23:01:53.340Z,182.07
2023-01-08T23:04:21.150Z,104.82
2023-01-08T23:06:49.001Z,101.93
2023-01-08T23:09:16.943Z,69.88
2023-01-08T23:12:03.155Z,79.80
2023-01-08T23:14:31.114Z,73.78
2023-01-08T23:16:58.954Z,74.13
2023-01-08T23:19:26.781Z,75.40
2023-01-08T23:21:54.662Z,70.13
2023-01-08T23:24:22.439Z,74.95
2023-01-08T23:26:50.323Z,62.78
2023-01-08T23:29:18.107Z,52.13
2023-01-08T23:31:45.928Z,56.20
2023-01-08T23:34:13.810Z,59.58
2023-01-08T23:36:43.304Z,54.63
2023-01-08T23:39:11.021Z,65.90
2023-01-08T23:41:38.879Z,33.55
2023-01-08T23:44:13.069Z,58.08
2023-01-08T23:46:40.973Z,54.20
2023-01-08T23:49:08.974Z,43.72
2023-01-08T23:51:37.152Z,50.55
2023-01-08T23:54:05.134Z,49.63
2023-01-08T23:56:33.074Z,48.30
2023-01-08T23:59:00.939Z,48.33
